Time;durP1;ratioP1;P1;durP2;ratioP2;P2;SDS_P1;SDS_P2;PMS_P1;PMS_P2;Temp;Humidity;BMP_temperature;BMP_pressure;BME280_temperature;BME280_humidity;BME280_pressure;Samples;Min_cycle;Max_cycle;Signal;HPM_P1;HPM_P2
2021/04/16 00:00:50;;;;;;;7.00;4.20;;;;;;;;;;5053339;28;20096;-64
2021/04/16 00:03:35;;;;;;;5.38;4.32;;;;;;;;;;5054597;28;20041;-65
2021/04/16 00:06:20;;;;;;;8.13;4.32;;;;;;;;;;5054763;28;20190;-65
2021/04/16 00:09:07;;;;;;;9.05;4.88;;;;;;;;;;5054343;28;20384;-65
2021/04/16 00:11:53;;;;;;;11.48;4.70;;;;;;;;;;5054504;28;20057;-65
2021/04/16 00:14:38;;;;;;;7.72;5.05;;;;;;;;;;5054158;28;20041;-64
2021/04/16 00:17:23;;;;;;;6.43;4.25;;;;;;;;;;5039283;28;20487;-65
2021/04/16 00:20:10;;;;;;;5.75;4.13;;;;;;;;;;5054085;28;20072;-65
2021/04/16 00:22:55;;;;;;;5.85;4.30;;;;;;;;;;5054454;28;20182;-64
2021/04/16 00:25:40;;;;;;;7.63;4.85;;;;;;;;;;5054134;28;20126;-65
2021/04/16 00:28:25;;;;;;;6.38;4.93;;;;;;;;;;5054135;28;20048;-65
2021/04/16 00:31:15;;;;;;;6.85;4.80;;;;;;;;;;5053859;28;20044;-65
2021/04/16 00:34:00;;;;;;;8.95;4.88;;;;;;;;;;5054483;28;20469;-64
2021/04/16 00:36:46;;;;;;;8.48;5.13;;;;;;;;;;5034352;28;20408;-65
2021/04/16 00:39:31;;;;;;;11.02;4.88;;;;;;;;;;5034031;28;20555;-64
2021/04/16 00:42:17;;;;;;;10.52;5.53;;;;;;;;;;5034468;28;20103;-64
2021/04/16 00:45:02;;;;;;;11.43;5.18;;;;;;;;;;5039556;28;20072;-64
2021/04/16 00:47:48;;;;;;;7.93;5.35;;;;;;;;;;5054246;28;20403;-64
2021/04/16 00:50:39;;;;;;;6.97;5.57;;;;;;;;;;5052874;28;20406;-64
2021/04/16 00:53:25;;;;;;;9.30;5.40;;;;;;;;;;5052712;28;20045;-65
2021/04/16 00:56:10;;;;;;;9.63;5.60;;;;;;;;;;5053621;28;20049;-65
2021/04/16 00:58:55;;;;;;;9.50;5.50;;;;;;;;;;5052495;28;20047;-65
2021/04/16 01:01:41;;;;;;;7.30;5.53;;;;;;;;;;5053242;28;20056;-65
2021/04/16 01:04:26;;;;;;;9.13;5.70;;;;;;;;;;5038351;28;20049;-65
2021/04/16 01:07:12;;;;;;;6.82;5.15;;;;;;;;;;5053400;28;20041;-65
2021/04/16 01:09:58;;;;;;;10.65;6.35;;;;;;;;;;5052218;28;20069;-65
2021/04/16 01:12:43;;;;;;;11.63;6.43;;;;;;;;;;5052027;28;20498;-65
2021/04/16 01:15:31;;;;;;;11.00;6.75;;;;;;;;;;5056425;28;20423;-64
2021/04/16 01:18:17;;;;;;;10.18;6.25;;;;;;;;;;5036571;28;20047;-65
2021/04/16 01:21:04;;;;;;;9.07;5.63;;;;;;;;;;5031901;28;20495;-65
2021/04/16 01:23:49;;;;;;;8.77;5.93;;;;;;;;;;5032331;28;20049;-65
2021/04/16 01:26:43;;;;;;;8.65;5.90;;;;;;;;;;5039720;28;20045;-65
2021/04/16 01:29:28;;;;;;;9.90;5.70;;;;;;;;;;5052795;28;20095;-65
2021/04/16 01:32:24;;;;;;;11.50;5.80;;;;;;;;;;5052920;28;20049;-65
2021/04/16 01:35:10;;;;;;;7.78;5.60;;;;;;;;;;5052916;28;20053;-65
2021/04/16 01:37:56;;;;;;;13.32;6.10;;;;;;;;;;5051805;28;20107;-65
2021/04/16 01:40:41;;;;;;;11.70;6.80;;;;;;;;;;5051556;28;20537;-65
2021/04/16 01:43:28;;;;;;;11.93;6.22;;;;;;;;;;5052696;28;20037;-65
2021/04/16 01:46:14;;;;;;;13.02;7.15;;;;;;;;;;5052841;28;20045;-65
2021/04/16 01:49:00;;;;;;;13.25;8.10;;;;;;;;;;5032602;28;20512;-65
2021/04/16 01:51:45;;;;;;;13.55;7.10;;;;;;;;;;5032570;28;20582;-65
2021/04/16 01:54:32;;;;;;;14.70;7.72;;;;;;;;;;5032812;28;20050;-65
2021/04/16 01:57:27;;;;;;;13.02;6.10;;;;;;;;;;5036477;28;20107;-65
2021/04/16 02:00:18;;;;;;;8.45;4.63;;;;;;;;;;5051953;28;20041;-65
2021/04/16 02:03:03;;;;;;;7.93;5.40;;;;;;;;;;5052464;28;20124;-65
2021/04/16 02:05:48;;;;;;;9.57;5.57;;;;;;;;;;5052198;28;20045;-65
2021/04/16 02:08:34;;;;;;;6.65;4.60;;;;;;;;;;5051978;28;20044;-65
2021/04/16 02:11:19;;;;;;;8.75;5.97;;;;;;;;;;5052171;28;20045;-65
2021/04/16 02:14:09;;;;;;;8.25;5.63;;;;;;;;;;5052271;28;20064;-65
2021/04/16 02:16:56;;;;;;;13.05;7.55;;;;;;;;;;5051999;28;20131;-65
2021/04/16 02:19:42;;;;;;;17.73;8.65;;;;;;;;;;5051714;28;20491;-65
2021/04/16 02:22:27;;;;;;;17.05;8.25;;;;;;;;;;5051974;28;20407;-65
2021/04/16 02:25:13;;;;;;;18.23;10.13;;;;;;;;;;5051855;28;20403;-65
2021/04/16 02:27:58;;;;;;;19.05;9.73;;;;;;;;;;5050940;28;20045;-65
2021/04/16 02:30:43;;;;;;;16.13;8.45;;;;;;;;;;5051764;28;20053;-65
2021/04/16 02:33:28;;;;;;;15.38;8.38;;;;;;;;;;5051910;28;20524;-65
2021/04/16 02:36:14;;;;;;;17.20;9.13;;;;;;;;;;5052120;28;20049;-65
2021/04/16 02:38:59;;;;;;;12.68;8.70;;;;;;;;;;5051885;28;20114;-65
2021/04/16 02:41:45;;;;;;;16.38;7.97;;;;;;;;;;5050544;28;20037;-65
2021/04/16 02:44:30;;;;;;;14.80;8.00;;;;;;;;;;5051383;28;20128;-65
2021/04/16 02:47:15;;;;;;;17.50;9.48;;;;;;;;;;5051834;28;20048;-65
2021/04/16 02:50:01;;;;;;;16.60;9.90;;;;;;;;;;5054096;28;20041;-64
2021/04/16 02:52:46;;;;;;;13.48;8.85;;;;;;;;;;5054268;28;20099;-65
2021/04/16 02:55:31;;;;;;;20.58;11.00;;;;;;;;;;5053582;28;20497;-64
2021/04/16 02:58:17;;;;;;;15.27;9.32;;;;;;;;;;5053116;28;20410;-65
2021/04/16 03:01:02;;;;;;;24.77;11.88;;;;;;;;;;5052670;28;20041;-65
2021/04/16 03:03:48;;;;;;;16.50;10.15;;;;;;;;;;5053690;28;20041;-64
2021/04/16 03:06:33;;;;;;;18.23;8.93;;;;;;;;;;5051675;28;20041;-65
2021/04/16 03:09:19;;;;;;;17.25;9.65;;;;;;;;;;5051230;28;20577;-65
2021/04/16 03:12:04;;;;;;;20.70;12.13;;;;;;;;;;5051802;28;20052;-65
2021/04/16 03:14:49;;;;;;;15.38;8.77;;;;;;;;;;5051822;28;20052;-65
2021/04/16 03:17:35;;;;;;;17.48;11.18;;;;;;;;;;5051510;28;20060;-65
2021/04/16 03:20:20;;;;;;;21.88;9.88;;;;;;;;;;5051238;28;20112;-65
2021/04/16 03:23:06;;;;;;;15.35;9.80;;;;;;;;;;5051589;28;20119;-65
2021/04/16 03:25:51;;;;;;;19.85;9.75;;;;;;;;;;5051395;28;20056;-65
2021/04/16 03:28:36;;;;;;;21.50;11.60;;;;;;;;;;5051272;28;20049;-65
2021/04/16 03:31:22;;;;;;;15.00;9.35;;;;;;;;;;5051225;28;20414;-65
2021/04/16 03:34:08;;;;;;;18.73;10.20;;;;;;;;;;5051675;28;20068;-65
2021/04/16 03:36:53;;;;;;;16.33;9.50;;;;;;;;;;5055254;28;20045;-65
2021/04/16 03:39:40;;;;;;;17.15;10.60;;;;;;;;;;5054612;28;20045;-65
2021/04/16 03:42:24;;;;;;;21.23;11.48;;;;;;;;;;5054962;28;20049;-65
2021/04/16 03:45:10;;;;;;;23.17;12.10;;;;;;;;;;5054904;28;20037;-65
2021/04/16 03:47:55;;;;;;;18.25;10.65;;;;;;;;;;5054955;28;20072;-65
2021/04/16 03:50:41;;;;;;;20.08;11.02;;;;;;;;;;5054299;28;20044;-65
2021/04/16 03:53:26;;;;;;;22.30;10.68;;;;;;;;;;5054830;28;20084;-65
2021/04/16 03:56:12;;;;;;;20.08;11.15;;;;;;;;;;5054707;28;20045;-65
2021/04/16 03:58:57;;;;;;;18.40;11.38;;;;;;;;;;5054504;28;20041;-65
2021/04/16 04:01:42;;;;;;;29.65;12.15;;;;;;;;;;5034688;28;20046;-65
2021/04/16 04:04:28;;;;;;;19.52;10.45;;;;;;;;;;5034728;28;20116;-65
2021/04/16 04:07:13;;;;;;;22.92;13.88;;;;;;;;;;5034625;28;20045;-65
2021/04/16 04:09:59;;;;;;;22.02;12.32;;;;;;;;;;5038082;28;20051;-65
2021/04/16 04:12:44;;;;;;;24.45;12.85;;;;;;;;;;5054201;28;20612;-65
2021/04/16 04:15:29;;;;;;;20.50;11.20;;;;;;;;;;5053087;28;20052;-65
2021/04/16 04:18:15;;;;;;;25.30;13.60;;;;;;;;;;5053963;28;20076;-65
2021/04/16 04:21:00;;;;;;;20.70;11.60;;;;;;;;;;5055417;28;20044;-65
2021/04/16 04:23:45;;;;;;;19.75;12.35;;;;;;;;;;5055412;28;20072;-65
2021/04/16 04:26:30;;;;;;;23.48;13.30;;;;;;;;;;5055329;28;20539;-64
2021/04/16 04:29:16;;;;;;;22.60;12.07;;;;;;;;;;5040302;28;20048;-64
2021/04/16 04:32:01;;;;;;;23.38;12.40;;;;;;;;;;5055203;28;20159;-64
2021/04/16 04:34:47;;;;;;;25.63;13.65;;;;;;;;;;5055733;28;20048;-63
2021/04/16 04:37:32;;;;;;;24.23;13.80;;;;;;;;;;5055532;28;20049;-64
2021/04/16 04:40:18;;;;;;;25.55;14.55;;;;;;;;;;5055073;28;20045;-64
2021/04/16 04:43:04;;;;;;;24.85;13.95;;;;;;;;;;5039272;28;20070;-65
2021/04/16 04:45:49;;;;;;;34.13;14.35;;;;;;;;;;5053566;28;20119;-65
2021/04/16 04:48:34;;;;;;;30.00;12.85;;;;;;;;;;5053485;28;20091;-65
2021/04/16 04:51:20;;;;;;;31.73;14.23;;;;;;;;;;5053158;28;20128;-65
2021/04/16 04:54:05;;;;;;;27.05;15.45;;;;;;;;;;5052395;28;20060;-65
2021/04/16 04:56:50;;;;;;;26.73;14.65;;;;;;;;;;5053108;28;20049;-65
2021/04/16 04:59:36;;;;;;;26.85;16.13;;;;;;;;;;5053611;28;20049;-64
2021/04/16 05:02:22;;;;;;;27.92;16.05;;;;;;;;;;5053075;28;20045;-64
2021/04/16 05:05:08;;;;;;;26.67;16.10;;;;;;;;;;5033547;28;20419;-64
2021/04/16 05:07:53;;;;;;;26.63;16.60;;;;;;;;;;5038748;28;20044;-64
2021/04/16 05:10:39;;;;;;;28.95;17.10;;;;;;;;;;5052871;28;20041;-64
2021/04/16 05:13:24;;;;;;;24.75;14.95;;;;;;;;;;5044540;28;20045;-64
2021/04/16 05:16:09;;;;;;;35.80;16.27;;;;;;;;;;5053032;28;20037;-64
2021/04/16 05:18:56;;;;;;;25.92;14.40;;;;;;;;;;5052836;28;20045;-64
2021/04/16 05:21:41;;;;;;;25.17;14.57;;;;;;;;;;5052672;28;20041;-64
2021/04/16 05:24:31;;;;;;;33.45;16.60;;;;;;;;;;5052827;28;20499;-65
2021/04/16 05:27:17;;;;;;;27.52;14.43;;;;;;;;;;5052754;28;20045;-64
2021/04/16 05:30:02;;;;;;;22.05;13.63;;;;;;;;;;5053029;28;20128;-64
2021/04/16 05:32:48;;;;;;;32.33;17.83;;;;;;;;;;5051446;28;20048;-64
2021/04/16 05:35:33;;;;;;;26.80;15.40;;;;;;;;;;5053004;28;20049;-65
2021/04/16 05:38:19;;;;;;;24.75;15.18;;;;;;;;;;5052760;28;20388;-64
2021/04/16 05:41:05;;;;;;;23.27;14.88;;;;;;;;;;5052502;28;20405;-65
2021/04/16 05:43:50;;;;;;;29.92;17.02;;;;;;;;;;5052568;28;20099;-64
2021/04/16 05:46:35;;;;;;;19.92;11.60;;;;;;;;;;5052815;28;20068;-65
2021/04/16 05:49:24;;;;;;;24.33;14.63;;;;;;;;;;5052557;28;20060;-64
2021/04/16 05:52:10;;;;;;;25.52;12.40;;;;;;;;;;5029364;28;20053;-64
2021/04/16 05:54:56;;;;;;;25.38;14.07;;;;;;;;;;5052709;28;20526;-64
2021/04/16 05:57:41;;;;;;;28.45;15.95;;;;;;;;;;5052126;28;20503;-65
2021/04/16 06:00:27;;;;;;;21.83;12.68;;;;;;;;;;5052202;28;20044;-64
2021/04/16 06:03:12;;;;;;;21.08;12.50;;;;;;;;;;5052539;28;20126;-64
2021/04/16 06:05:58;;;;;;;18.00;12.23;;;;;;;;;;5052440;28;20041;-64
2021/04/16 06:08:44;;;;;;;19.08;11.02;;;;;;;;;;5052647;28;20053;-64
2021/04/16 06:11:29;;;;;;;19.63;9.65;;;;;;;;;;5052270;28;20044;-64
2021/04/16 06:14:14;;;;;;;17.42;9.20;;;;;;;;;;5052707;28;20179;-64
2021/04/16 06:17:00;;;;;;;18.75;8.90;;;;;;;;;;5052568;28;20434;-64
2021/04/16 06:19:48;;;;;;;12.52;7.97;;;;;;;;;;5052112;28;20045;-65
2021/04/16 06:22:33;;;;;;;12.65;7.05;;;;;;;;;;5052021;28;20045;-65
2021/04/16 06:25:19;;;;;;;14.68;6.18;;;;;;;;;;5052212;28;20134;-65
2021/04/16 06:28:05;;;;;;;12.68;7.53;;;;;;;;;;5052005;28;20045;-64
2021/04/16 06:30:51;;;;;;;11.90;6.80;;;;;;;;;;5051759;28;20513;-65
2021/04/16 06:33:38;;;;;;;10.57;5.70;;;;;;;;;;5051840;28;20053;-65
2021/04/16 06:36:23;;;;;;;9.23;5.80;;;;;;;;;;5052147;28;20049;-65
2021/04/16 06:39:08;;;;;;;13.73;5.72;;;;;;;;;;5052022;28;20065;-64
2021/04/16 06:41:54;;;;;;;11.20;5.00;;;;;;;;;;5051958;28;20384;-64
2021/04/16 06:44:39;;;;;;;13.80;5.78;;;;;;;;;;5052276;28;20049;-65
2021/04/16 06:47:35;;;;;;;10.40;4.95;;;;;;;;;;5052346;28;20049;-64
2021/04/16 06:50:21;;;;;;;12.18;5.22;;;;;;;;;;5051518;28;20453;-65
2021/04/16 06:53:19;;;;;;;10.10;4.45;;;;;;;;;;5052728;28;20053;-65
2021/04/16 06:56:06;;;;;;;8.38;3.83;;;;;;;;;;5051425;28;20049;-65
2021/04/16 06:58:58;;;;;;;8.20;3.40;;;;;;;;;;5051644;28;20479;-65
2021/04/16 07:01:44;;;;;;;13.25;5.30;;;;;;;;;;5053098;28;20045;-65
2021/04/16 07:04:32;;;;;;;9.73;3.15;;;;;;;;;;5051423;28;20091;-65
2021/04/16 07:07:20;;;;;;;7.93;3.38;;;;;;;;;;5053082;28;20053;-65
2021/04/16 07:10:24;;;;;;;5.72;2.90;;;;;;;;;;5054220;28;20045;-65
2021/04/16 07:13:10;;;;;;;6.20;2.40;;;;;;;;;;5055971;28;20124;-65
2021/04/16 07:15:55;;;;;;;9.43;2.90;;;;;;;;;;5054820;28;20041;-65
2021/04/16 07:18:41;;;;;;;7.13;2.70;;;;;;;;;;5055451;28;20045;-65
2021/04/16 07:21:26;;;;;;;7.38;2.90;;;;;;;;;;5054045;28;20053;-65
2021/04/16 07:24:12;;;;;;;6.88;2.97;;;;;;;;;;5055646;28;20049;-65
2021/04/16 07:26:59;;;;;;;5.70;2.92;;;;;;;;;;5055583;28;20068;-65
2021/04/16 07:29:55;;;;;;;6.70;2.28;;;;;;;;;;5055003;28;20048;-65
2021/04/16 07:32:42;;;;;;;4.57;2.10;;;;;;;;;;5054581;28;20088;-65
2021/04/16 07:35:29;;;;;;;5.95;3.05;;;;;;;;;;5055291;28;20041;-65
2021/04/16 07:38:15;;;;;;;4.45;1.85;;;;;;;;;;5054213;28;20041;-65
2021/04/16 07:41:17;;;;;;;5.65;2.30;;;;;;;;;;5054018;28;20045;-65
2021/04/16 07:44:03;;;;;;;8.23;1.90;;;;;;;;;;5055050;28;20522;-65
2021/04/16 07:46:55;;;;;;;3.45;1.55;;;;;;;;;;5055025;28;20411;-65
2021/04/16 07:49:54;;;;;;;3.25;1.33;;;;;;;;;;5054951;28;20045;-65
2021/04/16 07:52:42;;;;;;;6.10;1.95;;;;;;;;;;5054809;28;20057;-65
2021/04/16 07:55:27;;;;;;;4.28;2.00;;;;;;;;;;5053873;28;20076;-65
2021/04/16 07:58:19;;;;;;;5.93;1.58;;;;;;;;;;5054647;28;20554;-65
2021/04/16 08:01:31;;;;;;;9.70;1.30;;;;;;;;;;5054493;28;20052;-65
2021/04/16 08:04:22;;;;;;;1.90;0.75;;;;;;;;;;5054839;28;20126;-65
2021/04/16 08:07:30;;;;;;;3.42;0.80;;;;;;;;;;5054496;28;20073;-65
2021/04/16 08:10:18;;;;;;;6.57;1.60;;;;;;;;;;5054211;28;20538;-65
2021/04/16 08:13:07;;;;;;;2.92;1.10;;;;;;;;;;5054469;28;20048;-65
2021/04/16 08:15:54;;;;;;;4.43;2.03;;;;;;;;;;5054614;28;20049;-65
2021/04/16 08:18:39;;;;;;;3.40;1.00;;;;;;;;;;5054401;28;20398;-65
2021/04/16 08:21:24;;;;;;;3.45;1.10;;;;;;;;;;5052245;28;20041;-65
2021/04/16 08:24:16;;;;;;;2.90;1.17;;;;;;;;;;5053538;28;20056;-65
2021/04/16 08:27:02;;;;;;;3.60;0.95;;;;;;;;;;5054217;28;20040;-65
2021/04/16 08:29:48;;;;;;;1.38;0.70;;;;;;;;;;5054171;28;20049;-65
2021/04/16 08:32:35;;;;;;;1.45;0.80;;;;;;;;;;5053186;28;20045;-65
2021/04/16 08:35:25;;;;;;;2.58;1.02;;;;;;;;;;5053110;28;20053;-65
2021/04/16 08:38:12;;;;;;;1.23;0.90;;;;;;;;;;5052888;28;20411;-65
2021/04/16 08:40:57;;;;;;;1.13;0.50;;;;;;;;;;5052976;28;20124;-65
2021/04/16 08:43:44;;;;;;;3.13;0.88;;;;;;;;;;5052892;28;20494;-65
2021/04/16 08:46:37;;;;;;;2.33;1.02;;;;;;;;;;5052890;28;20044;-65
2021/04/16 08:49:23;;;;;;;2.15;1.05;;;;;;;;;;5038750;28;20049;-65
2021/04/16 08:52:11;;;;;;;4.15;1.10;;;;;;;;;;5052772;28;20567;-65
2021/04/16 08:55:07;;;;;;;1.70;0.68;;;;;;;;;;5053738;28;20044;-65
2021/04/16 08:57:54;;;;;;;1.15;0.50;;;;;;;;;;5038647;28;20041;-65
2021/04/16 09:00:47;;;;;;;0.98;0.57;;;;;;;;;;5052465;28;20045;-65
2021/04/16 09:03:32;;;;;;;;;;;;;;;;;;5052877;28;20044;-65
2021/04/16 09:06:21;;;;;;;1.02;0.68;;;;;;;;;;5053600;28;19920;-65
2021/04/16 09:09:07;;;;;;;2.10;0.63;;;;;;;;;;5053382;28;20049;-65
2021/04/16 09:11:53;;;;;;;2.05;0.70;;;;;;;;;;5053456;28;20073;-65
2021/04/16 09:14:38;;;;;;;0.98;0.40;;;;;;;;;;5053704;28;20069;-65
2021/04/16 09:17:40;;;;;;;2.38;0.45;;;;;;;;;;5053374;28;20124;-65
2021/04/16 09:20:28;;;;;;;1.60;0.68;;;;;;;;;;5051804;28;20120;-65
2021/04/16 09:23:28;;;;;;;2.15;0.80;;;;;;;;;;5053198;28;20415;-65
2021/04/16 09:26:34;;;;;;;1.33;0.60;;;;;;;;;;5053034;28;20044;-65
2021/04/16 09:29:28;;;;;;;3.67;0.90;;;;;;;;;;5052993;28;20049;-65
2021/04/16 09:32:32;;;;;;;4.72;0.80;;;;;;;;;;5052811;28;20052;-65
2021/04/16 09:35:20;;;;;;;3.53;1.17;;;;;;;;;;5053209;28;20049;-65
2021/04/16 09:38:24;;;;;;;2.85;0.85;;;;;;;;;;5052855;28;20049;-65
2021/04/16 09:41:23;;;;;;;1.65;0.70;;;;;;;;;;5052789;28;20056;-65
2021/04/16 09:44:27;;;;;;;1.95;0.55;;;;;;;;;;5052662;28;20037;-65
2021/04/16 09:47:13;;;;;;;1.02;0.57;;;;;;;;;;5037657;28;20048;-65
2021/04/16 09:50:00;;;;;;;1.60;0.70;;;;;;;;;;5051557;28;20053;-65
2021/04/16 09:52:46;;;;;;;3.50;1.33;;;;;;;;;;5053010;28;20049;-65
2021/04/16 09:55:50;;;;;;;1.02;0.60;;;;;;;;;;5052882;28;20052;-65
2021/04/16 09:58:38;;;;;;;0.60;0.50;;;;;;;;;;5053582;28;20067;-65
2021/04/16 10:01:25;;;;;;;1.35;0.68;;;;;;;;;;5053187;28;20041;-65
2021/04/16 10:04:15;;;;;;;1.67;0.50;;;;;;;;;;5052830;28;20411;-65
2021/04/16 10:07:02;;;;;;;1.63;0.75;;;;;;;;;;5053097;28;20041;-64
2021/04/16 10:09:47;;;;;;;2.15;0.82;;;;;;;;;;5052916;28;20056;-65
2021/04/16 10:12:33;;;;;;;3.88;0.75;;;;;;;;;;5053852;28;20503;-65
2021/04/16 10:15:23;;;;;;;2.55;0.70;;;;;;;;;;5054015;28;20041;-65
2021/04/16 10:18:28;;;;;;;2.85;0.70;;;;;;;;;;5053266;28;20052;-65
2021/04/16 10:21:17;;;;;;;1.52;0.70;;;;;;;;;;5053872;28;20041;-65
2021/04/16 10:24:44;;;;;;;2.13;0.75;;;;;;;;;;5054005;28;20049;-64
2021/04/16 10:28:25;;;;;;;4.43;0.93;;;;;;;;;;5051642;28;20450;-65
2021/04/16 11:11:03;;;;;;;1.98;0.93;;;;;;;;;;5052641;28;20068;-65
2021/04/16 11:21:19;;;;;;;0.73;0.45;;;;;;;;;;5050453;28;20049;-65
2021/04/16 12:39:31;;;;;;;2.53;1.48;;;;;;;;;;5053838;28;20041;-65
2021/04/16 12:42:16;;;;;;;2.40;0.93;;;;;;;;;;5053963;28;20049;-65
2021/04/16 12:45:02;;;;;;;2.60;0.80;;;;;;;;;;5053122;28;20049;-65
2021/04/16 12:47:47;;;;;;;1.58;1.08;;;;;;;;;;5053924;28;20049;-65
2021/04/16 12:50:33;;;;;;;3.97;1.30;;;;;;;;;;5053619;28;20049;-65
2021/04/16 12:53:19;;;;;;;2.13;1.17;;;;;;;;;;5053939;28;20045;-65
2021/04/16 12:56:04;;;;;;;1.88;0.80;;;;;;;;;;5053813;28;20419;-65
2021/04/16 12:58:49;;;;;;;2.72;1.00;;;;;;;;;;5052434;28;20135;-65
2021/04/16 13:01:35;;;;;;;2.45;0.77;;;;;;;;;;5052613;28;20049;-65
2021/04/16 13:04:21;;;;;;;1.70;0.70;;;;;;;;;;5053673;28;20045;-65
2021/04/16 13:07:07;;;;;;;3.10;1.52;;;;;;;;;;5052133;28;20408;-65
2021/04/16 13:09:52;;;;;;;3.53;1.35;;;;;;;;;;5053381;28;20072;-65
2021/04/16 13:12:37;;;;;;;4.28;1.30;;;;;;;;;;5053704;28;20061;-65
2021/04/16 13:15:22;;;;;;;2.25;1.10;;;;;;;;;;5053251;28;20056;-65
2021/04/16 13:18:08;;;;;;;1.52;0.82;;;;;;;;;;5053377;28;20447;-65
2021/04/16 13:20:53;;;;;;;3.83;0.98;;;;;;;;;;5053188;28;20049;-65
2021/04/16 13:23:38;;;;;;;4.72;0.95;;;;;;;;;;5052982;28;20411;-65
2021/04/16 13:26:25;;;;;;;3.65;1.13;;;;;;;;;;5053147;28;20683;-65
2021/04/16 13:29:10;;;;;;;3.45;1.17;;;;;;;;;;5053064;28;20045;-65
2021/04/16 13:31:55;;;;;;;2.95;0.88;;;;;;;;;;5053018;28;20072;-65
2021/04/16 13:34:41;;;;;;;2.45;1.00;;;;;;;;;;5052215;28;20052;-65
2021/04/16 13:37:31;;;;;;;2.35;1.10;;;;;;;;;;5052155;28;20499;-65
2021/04/16 13:40:16;;;;;;;4.18;1.30;;;;;;;;;;5053301;28;20392;-64
2021/04/16 13:43:02;;;;;;;1.90;1.13;;;;;;;;;;5055379;28;20133;-65
2021/04/16 13:45:47;;;;;;;1.65;0.90;;;;;;;;;;5055826;28;20049;-65
2021/04/16 13:48:32;;;;;;;2.55;1.38;;;;;;;;;;5055079;28;20049;-65
2021/04/16 13:51:18;;;;;;;1.52;0.73;;;;;;;;;;5054395;28;20045;-65
2021/04/16 13:54:05;;;;;;;2.13;1.10;;;;;;;;;;5055443;28;20098;-65
2021/04/16 13:56:52;;;;;;;2.28;1.17;;;;;;;;;;5055223;28;20045;-64
2021/04/16 13:59:37;;;;;;;3.00;1.05;;;;;;;;;;5054414;28;20126;-65
2021/04/16 14:02:26;;;;;;;2.30;1.00;;;;;;;;;;5055345;28;20048;-65
2021/04/16 14:05:14;;;;;;;1.90;0.98;;;;;;;;;;5054109;28;20132;-65
2021/04/16 14:08:01;;;;;;;4.88;1.58;;;;;;;;;;5054949;28;20037;-65
2021/04/16 14:10:47;;;;;;;5.13;1.90;;;;;;;;;;5054385;28;20123;-65
2021/04/16 14:13:32;;;;;;;2.92;1.08;;;;;;;;;;5055327;28;20049;-65
2021/04/16 14:16:22;;;;;;;4.60;1.92;;;;;;;;;;5052473;28;20049;-65
2021/04/16 14:19:10;;;;;;;3.47;1.27;;;;;;;;;;5050486;28;20431;-65
2021/04/16 14:21:56;;;;;;;2.38;0.80;;;;;;;;;;5052210;28;20077;-65
2021/04/16 14:24:41;;;;;;;1.73;1.08;;;;;;;;;;5052259;28;20041;-65
2021/04/16 14:27:26;;;;;;;2.55;1.20;;;;;;;;;;5052277;28;20128;-65
2021/04/16 14:30:14;;;;;;;2.13;1.60;;;;;;;;;;5051797;28;20571;-65
2021/04/16 14:33:00;;;;;;;4.20;1.33;;;;;;;;;;5052122;28;20080;-65
2021/04/16 14:35:45;;;;;;;2.50;0.95;;;;;;;;;;5052089;28;20044;-66
2021/04/16 14:38:31;;;;;;;1.55;0.95;;;;;;;;;;5052021;28;20451;-65
2021/04/16 14:41:20;;;;;;;2.65;1.17;;;;;;;;;;5051701;28;20574;-65
2021/04/16 14:44:06;;;;;;;1.38;1.00;;;;;;;;;;5051050;28;20045;-65
2021/04/16 14:46:51;;;;;;;2.10;1.23;;;;;;;;;;5050943;28;20049;-65
2021/04/16 14:49:36;;;;;;;2.75;1.30;;;;;;;;;;5051730;28;20049;-65
2021/04/16 14:52:23;;;;;;;2.38;1.17;;;;;;;;;;5036876;28;20041;-65
2021/04/16 14:55:10;;;;;;;6.78;1.40;;;;;;;;;;5050906;28;20064;-65
2021/04/16 14:57:55;;;;;;;4.55;1.45;;;;;;;;;;5051008;28;20053;-65
2021/04/16 15:00:41;;;;;;;3.63;1.35;;;;;;;;;;5050731;28;20045;-65
2021/04/16 15:03:26;;;;;;;5.90;1.85;;;;;;;;;;5051066;28;20052;-65
2021/04/16 15:06:12;;;;;;;4.22;2.55;;;;;;;;;;5051036;28;20040;-65
2021/04/16 15:08:58;;;;;;;4.53;1.75;;;;;;;;;;5050781;28;20045;-65
2021/04/16 15:11:44;;;;;;;3.28;1.27;;;;;;;;;;5050743;28;20041;-65
2021/04/16 15:14:30;;;;;;;1.65;0.95;;;;;;;;;;5051891;28;20053;-65
2021/04/16 15:17:16;;;;;;;3.90;1.27;;;;;;;;;;5051541;28;20492;-65
2021/04/16 15:20:01;;;;;;;2.08;1.10;;;;;;;;;;5051211;28;20419;-65
2021/04/16 15:22:46;;;;;;;2.83;0.68;;;;;;;;;;5051462;28;20041;-65
2021/04/16 15:25:32;;;;;;;1.20;0.65;;;;;;;;;;5051567;28;20076;-65
2021/04/16 15:28:26;;;;;;;1.38;0.82;;;;;;;;;;5051470;28;20041;-65
2021/04/16 15:31:13;;;;;;;2.55;0.93;;;;;;;;;;5053389;28;20045;-65
2021/04/16 15:46:15;;;;;;;1.17;0.43;;;;;;;;;;5054215;28;20506;-65
2021/04/16 15:49:00;;;;;;;1.20;0.30;;;;;;;;;;5054412;28;20049;-65
2021/04/16 15:51:45;;;;;;;4.15;0.75;;;;;;;;;;5054811;28;20495;-65
2021/04/16 15:54:30;;;;;;;1.65;0.60;;;;;;;;;;5054873;28;20516;-65
2021/04/16 15:57:16;;;;;;;1.42;0.60;;;;;;;;;;5055047;28;20545;-65
2021/04/16 16:00:01;;;;;;;1.40;0.45;;;;;;;;;;5054378;28;20045;-65
2021/04/16 16:02:46;;;;;;;1.42;0.40;;;;;;;;;;5053916;28;20049;-65
2021/04/16 16:05:32;;;;;;;1.75;0.55;;;;;;;;;;5054679;28;20053;-65
2021/04/16 16:08:17;;;;;;;1.20;0.50;;;;;;;;;;5054729;28;20045;-65
2021/04/16 16:11:02;;;;;;;2.20;0.50;;;;;;;;;;5054476;28;20045;-65
2021/04/16 16:13:48;;;;;;;0.82;0.50;;;;;;;;;;5039452;28;20495;-65
2021/04/16 16:16:33;;;;;;;2.80;0.65;;;;;;;;;;5039700;28;20056;-65
2021/04/16 16:19:18;;;;;;;0.85;0.38;;;;;;;;;;5054247;28;20507;-65
2021/04/16 16:22:03;;;;;;;1.58;0.65;;;;;;;;;;5035384;28;20041;-65
2021/04/16 16:24:48;;;;;;;1.42;0.60;;;;;;;;;;5051201;28;20053;-65
2021/04/16 16:27:34;;;;;;;3.50;0.75;;;;;;;;;;5052231;28;20135;-65
2021/04/16 16:30:20;;;;;;;1.73;0.80;;;;;;;;;;5039966;28;20052;-65
2021/04/16 16:33:05;;;;;;;2.92;0.82;;;;;;;;;;5052037;28;20040;-65
2021/04/16 16:35:51;;;;;;;1.10;0.65;;;;;;;;;;5030124;28;20454;-65
2021/04/16 16:38:36;;;;;;;2.75;0.73;;;;;;;;;;5041951;28;20053;-65
2021/04/16 16:41:21;;;;;;;0.88;0.50;;;;;;;;;;5050918;28;20411;-65
2021/04/16 16:44:10;;;;;;;1.30;0.80;;;;;;;;;;5049675;28;20392;-65
2021/04/16 16:46:56;;;;;;;2.92;1.58;;;;;;;;;;5050890;28;20076;-65
2021/04/16 16:49:41;;;;;;;2.90;1.38;;;;;;;;;;5050232;28;20053;-65
2021/04/16 16:52:26;;;;;;;1.88;1.40;;;;;;;;;;5046337;28;20092;-65
2021/04/16 16:55:12;;;;;;;2.65;1.17;;;;;;;;;;5050436;28;20049;-65
2021/04/16 16:57:57;;;;;;;2.80;1.02;;;;;;;;;;5051154;28;20491;-65
2021/04/16 17:00:47;;;;;;;2.15;1.55;;;;;;;;;;5085259;22;20049;-63
2021/04/16 17:03:32;;;;;;;1.95;1.00;;;;;;;;;;5049138;28;20045;-63
2021/04/16 17:06:18;;;;;;;8.27;1.15;;;;;;;;;;5039135;28;20049;-63
2021/04/16 17:09:04;;;;;;;4.38;1.52;;;;;;;;;;5039071;28;20042;-65
2021/04/16 17:11:49;;;;;;;2.78;1.77;;;;;;;;;;5039196;28;20046;-63
2021/04/16 17:14:38;;;;;;;3.65;1.67;;;;;;;;;;5038220;28;20534;-64
2021/04/16 17:17:23;;;;;;;3.83;2.08;;;;;;;;;;5026636;28;20045;-63
2021/04/16 17:20:09;;;;;;;2.28;1.73;;;;;;;;;;5039500;28;20049;-63
2021/04/16 17:22:54;;;;;;;3.35;1.65;;;;;;;;;;5044811;28;20048;-63
2021/04/16 17:25:39;;;;;;;1.70;1.02;;;;;;;;;;5042995;28;20057;-63
2021/04/16 17:28:27;;;;;;;1.83;0.63;;;;;;;;;;5043317;28;20041;-63
2021/04/16 17:31:13;;;;;;;6.45;1.42;;;;;;;;;;5030836;28;20053;-64
2021/04/16 17:33:58;;;;;;;1.88;0.90;;;;;;;;;;5016508;28;20041;-63
2021/04/16 17:36:43;;;;;;;2.65;1.10;;;;;;;;;;5031585;28;20041;-63
2021/04/16 17:39:29;;;;;;;4.20;1.40;;;;;;;;;;5030240;28;20056;-63
2021/04/16 17:42:34;;;;;;;4.22;1.90;;;;;;;;;;5031135;28;20072;-63
2021/04/16 17:45:23;;;;;;;2.58;1.80;;;;;;;;;;5016313;28;20360;-63
2021/04/16 17:48:09;;;;;;;4.00;2.08;;;;;;;;;;5032066;28;20446;-63
2021/04/16 17:50:55;;;;;;;2.55;1.70;;;;;;;;;;5030974;28;20427;-63
2021/04/16 17:53:40;;;;;;;4.18;1.85;;;;;;;;;;5031320;28;20045;-63
2021/04/16 17:56:27;;;;;;;5.25;2.33;;;;;;;;;;5030249;28;20132;-63
2021/04/16 17:59:24;;;;;;;3.50;2.45;;;;;;;;;;5039897;28;20036;-63
2021/04/16 18:02:09;;;;;;;8.63;3.40;;;;;;;;;;5051146;28;20045;-63
2021/04/16 18:04:54;;;;;;;4.13;2.55;;;;;;;;;;5035787;28;20045;-63
2021/04/16 18:07:42;;;;;;;4.78;3.10;;;;;;;;;;5050908;28;20055;-62
2021/04/16 18:10:29;;;;;;;5.30;3.05;;;;;;;;;;5034878;28;20036;-63
2021/04/16 18:13:14;;;;;;;6.38;5.10;;;;;;;;;;5050567;28;20415;-63
2021/04/16 18:15:59;;;;;;;7.38;3.75;;;;;;;;;;5051041;28;20052;-62
2021/04/16 18:18:44;;;;;;;8.38;3.58;;;;;;;;;;5050896;28;20041;-62
2021/04/16 18:21:30;;;;;;;7.93;3.95;;;;;;;;;;5035029;28;20044;-63
2021/04/16 18:24:24;;;;;;;6.53;3.65;;;;;;;;;;5050137;28;20202;-62
2021/04/16 18:27:14;;;;;;;5.18;4.35;;;;;;;;;;5050792;28;20069;-62
2021/04/16 18:29:59;;;;;;;5.85;3.28;;;;;;;;;;5020006;28;20045;-63
2021/04/16 18:32:45;;;;;;;8.55;3.45;;;;;;;;;;5030870;28;20411;-63
2021/04/16 18:35:30;;;;;;;6.70;3.08;;;;;;;;;;5030185;28;20320;-63
2021/04/16 18:38:27;;;;;;;5.05;3.28;;;;;;;;;;5030081;28;20050;-63
2021/04/16 18:41:15;;;;;;;6.72;3.67;;;;;;;;;;5034773;28;20095;-63
2021/04/16 18:44:01;;;;;;;4.55;2.65;;;;;;;;;;5050475;28;20040;-63
2021/04/16 18:46:46;;;;;;;6.20;2.38;;;;;;;;;;5048519;28;20163;-63
2021/04/16 18:49:31;;;;;;;5.80;3.10;;;;;;;;;;5031472;28;20037;-62